createdAt,value
2023-02-24T00:01:24.788Z,9.04
2023-02-24T00:03:27.387Z,9.03
2023-02-24T00:05:29.899Z,9.05
2023-02-24T00:07:32.418Z,9.07
2023-02-24T00:09:34.972Z,9.24
2023-02-24T00:11:38.959Z,9.11
2023-02-24T00:13:46.359Z,9.09
2023-02-24T00:16:00.766Z,9.09
2023-02-24T00:18:07.024Z,9.07
2023-02-24T00:20:12.068Z,9.08
2023-02-24T00:22:14.623Z,9.08
2023-02-24T00:24:17.146Z,9.06
2023-02-24T00:26:19.918Z,9.05
2023-02-24T00:28:22.451Z,9.06
2023-02-24T00:30:25.067Z,9.02
2023-02-24T00:32:27.732Z,9.10
2023-02-24T00:34:33.843Z,9.15
2023-02-24T00:36:36.689Z,9.02
2023-02-24T00:38:40.189Z,9.14
2023-02-24T00:40:45.244Z,9.13
2023-02-24T00:42:48.565Z,9.06
2023-02-24T00:44:54.002Z,8.97
2023-02-24T00:46:56.556Z,8.88
2023-02-24T00:48:59.075Z,8.85
2023-02-24T00:51:03.336Z,8.84
2023-02-24T00:53:07.501Z,8.79
2023-02-24T00:55:13.943Z,8.78
2023-02-24T00:57:18.509Z,8.79
2023-02-24T00:59:24.101Z,8.89
2023-02-24T01:01:29.178Z,8.86
2023-02-24T01:03:32.832Z,8.89
2023-02-24T01:05:38.746Z,8.79
2023-02-24T01:07:42.658Z,8.78
2023-02-24T01:09:45.404Z,8.74
2023-02-24T01:12:13.040Z,8.80
2023-02-24T01:14:18.905Z,8.85
2023-02-24T01:16:21.681Z,8.77
2023-02-24T01:18:24.238Z,8.74
2023-02-24T01:20:30.372Z,8.75
2023-02-24T01:22:34.081Z,8.75
2023-02-24T01:24:39.858Z,8.79
2023-02-24T01:26:42.630Z,8.75
2023-02-24T01:28:48.019Z,8.77
2023-02-24T01:30:50.836Z,8.82
2023-02-24T01:32:53.664Z,8.80
2023-02-24T01:34:56.410Z,8.76
2023-02-24T01:36:59.118Z,8.82
2023-02-24T01:39:02.249Z,8.74
2023-02-24T01:41:08.324Z,8.72
2023-02-24T01:43:11.808Z,8.82
2023-02-24T01:45:19.768Z,8.87
2023-02-24T01:47:22.408Z,8.82
2023-02-24T01:49:29.668Z,8.74
2023-02-24T01:51:37.387Z,8.92
2023-02-24T01:53:40.034Z,8.77
2023-02-24T01:55:47.024Z,8.94
2023-02-24T01:57:53.387Z,8.81
2023-02-24T02:00:01.885Z,8.76
2023-02-24T02:02:08.612Z,8.68
2023-02-24T02:04:19.083Z,8.62
2023-02-24T02:06:21.761Z,8.64
2023-02-24T02:08:25.206Z,8.63
2023-02-24T02:10:28.916Z,8.58
2023-02-24T02:12:36.975Z,8.54
2023-02-24T02:14:44.056Z,8.54
2023-02-24T02:17:03.757Z,8.55
2023-02-24T02:19:45.111Z,8.57
2023-02-24T02:22:08.645Z,8.59
2023-02-24T02:24:23.092Z,8.62
2023-02-24T02:26:57.743Z,8.65
2023-02-24T02:29:25.471Z,8.66
2023-02-24T02:31:50.858Z,8.75
2023-02-24T02:34:08.890Z,8.72
2023-02-24T02:36:21.884Z,8.69
2023-02-24T02:38:30.849Z,8.73
2023-02-24T02:40:40.825Z,8.71
2023-02-24T02:42:48.257Z,8.76
2023-02-24T02:44:55.956Z,8.76
2023-02-24T02:47:04.594Z,8.80
2023-02-24T02:49:16.884Z,8.88
2023-02-24T02:51:22.807Z,8.76
2023-02-24T02:53:32.650Z,8.74
2023-02-24T02:55:41.718Z,8.75
2023-02-24T02:57:49.545Z,8.74
2023-02-24T02:59:57.414Z,8.77
2023-02-24T03:02:11.475Z,8.77
2023-02-24T03:04:22.805Z,8.87
2023-02-24T03:06:29.023Z,8.80
2023-02-24T03:08:37.147Z,8.83
2023-02-24T03:10:44.698Z,8.78
2023-02-24T03:12:51.776Z,8.76
2023-02-24T03:15:00.013Z,8.79
2023-02-24T03:17:06.486Z,8.76
2023-02-24T03:22:40.366Z,8.78
2023-02-24T03:24:44.518Z,8.79
2023-02-24T03:26:50.384Z,8.84
2023-02-24T03:29:00.293Z,8.85
2023-02-24T03:31:10.927Z,8.82
2023-02-24T03:33:24.142Z,8.84
2023-02-24T03:35:29.949Z,8.84
2023-02-24T03:37:33.974Z,8.85
2023-02-24T03:39:37.048Z,8.87
2023-02-24T03:41:47.166Z,8.87
2023-02-24T03:43:52.225Z,8.92
2023-02-24T03:45:56.492Z,8.99
2023-02-24T03:48:03.030Z,8.99
2023-02-24T03:50:12.633Z,9.00
2023-02-24T03:52:24.327Z,8.89
2023-02-24T03:54:49.613Z,8.89
2023-02-24T03:57:07.188Z,8.83
2023-02-24T03:59:18.669Z,8.81
2023-02-24T04:01:30.990Z,8.80
2023-02-24T04:03:38.849Z,8.76
2023-02-24T04:05:47.570Z,8.77
2023-02-24T04:07:58.752Z,8.75
2023-02-24T04:10:09.804Z,8.76
2023-02-24T04:12:19.810Z,8.80
2023-02-24T04:14:29.085Z,8.80
2023-02-24T04:16:40.065Z,8.83
2023-02-24T04:18:42.782Z,8.83
2023-02-24T04:20:49.418Z,8.80
2023-02-24T04:22:59.535Z,8.81
2023-02-24T04:25:06.025Z,8.94
2023-02-24T04:27:12.774Z,8.87
2023-02-24T04:29:24.565Z,9.00
2023-02-24T04:31:28.538Z,8.85
2023-02-24T04:33:31.172Z,8.91
2023-02-24T04:35:34.165Z,8.88
2023-02-24T04:37:39.683Z,8.92
2023-02-24T04:39:42.388Z,8.82
2023-02-24T04:41:49.292Z,8.90
2023-02-24T04:43:51.991Z,8.77
2023-02-24T04:45:55.912Z,8.71
2023-02-24T04:48:02.099Z,8.75
2023-02-24T04:50:06.634Z,8.70
2023-02-24T04:52:10.294Z,8.75
2023-02-24T04:54:17.332Z,8.90
2023-02-24T04:56:22.428Z,8.80
2023-02-24T04:58:27.958Z,8.83
2023-02-24T05:00:35.679Z,8.80
2023-02-24T05:02:38.969Z,8.85
2023-02-24T05:04:41.643Z,8.72
2023-02-24T05:06:45.122Z,8.68
2023-02-24T05:08:47.749Z,8.63
2023-02-24T05:10:52.097Z,8.59
2023-02-24T05:12:54.861Z,8.62
2023-02-24T05:15:01.291Z,8.72
2023-02-24T05:17:03.843Z,8.68
2023-02-24T05:19:20.617Z,8.65
2023-02-24T05:21:38.458Z,8.58
2023-02-24T05:23:44.300Z,8.56
2023-02-24T05:25:46.950Z,8.56
2023-02-24T05:27:49.585Z,8.55
2023-02-24T05:29:54.209Z,8.52
2023-02-24T05:32:00.417Z,8.54
2023-02-24T05:34:04.827Z,8.62
2023-02-24T05:36:12.136Z,8.73
2023-02-24T05:38:14.714Z,8.65
2023-02-24T05:40:19.958Z,8.63
2023-02-24T05:42:22.736Z,8.59
2023-02-24T05:44:27.413Z,8.56
2023-02-24T05:46:32.649Z,8.55
2023-02-24T05:48:36.961Z,8.55
2023-02-24T05:50:39.765Z,8.58
2023-02-24T05:52:45.757Z,8.72
2023-02-24T05:54:49.507Z,8.73
2023-02-24T05:56:52.113Z,8.66
2023-02-24T05:59:01.990Z,8.71
2023-02-24T06:01:16.103Z,8.66
2023-02-24T06:03:30.830Z,8.61
2023-02-24T06:05:35.480Z,8.79
2023-02-24T06:07:38.103Z,8.72
2023-02-24T06:09:44.981Z,8.57
2023-02-24T06:11:48.389Z,8.63
2023-02-24T06:13:51.008Z,8.54
2023-02-24T06:15:57.235Z,8.53
2023-02-24T06:18:01.769Z,8.60
2023-02-24T06:20:13.312Z,8.53
2023-02-24T06:22:19.673Z,8.65
2023-02-24T06:24:22.262Z,8.55
2023-02-24T06:26:29.751Z,8.50
2023-02-24T06:28:33.488Z,8.47
2023-02-24T06:30:37.763Z,8.49
2023-02-24T06:32:41.139Z,8.46
2023-02-24T06:34:43.794Z,8.47
2023-02-24T06:36:47.041Z,8.46
2023-02-24T06:38:52.622Z,8.50
2023-02-24T06:40:58.280Z,8.49
2023-02-24T06:43:00.941Z,8.48
2023-02-24T06:45:04.197Z,8.53
2023-02-24T06:47:09.132Z,8.48
2023-02-24T06:49:12.612Z,8.54
2023-02-24T06:51:16.930Z,8.52
2023-02-24T06:53:19.507Z,8.52
2023-02-24T06:55:26.452Z,8.47
2023-02-24T06:57:32.724Z,8.46
2023-02-24T06:59:35.298Z,8.46
2023-02-24T07:01:45.032Z,8.48
2023-02-24T07:04:03.414Z,8.51
2023-02-24T07:06:20.451Z,8.68
2023-02-24T07:08:25.075Z,8.53
2023-02-24T07:10:29.476Z,8.49
2023-02-24T07:12:32.005Z,8.69
2023-02-24T07:14:36.973Z,8.57
2023-02-24T07:16:41.886Z,8.56
2023-02-24T07:18:48.270Z,8.54
2023-02-24T07:20:50.841Z,8.72
2023-02-24T07:22:53.619Z,8.64
2023-02-24T07:25:01.494Z,8.55
2023-02-24T07:27:07.085Z,8.60
2023-02-24T07:29:11.525Z,8.62
2023-02-24T07:31:17.281Z,8.59
2023-02-24T07:33:20.342Z,8.69
2023-02-24T07:35:23.839Z,8.55
2023-02-24T07:37:31.437Z,8.53
2023-02-24T07:39:34.789Z,8.50
2023-02-24T07:41:37.832Z,8.49
2023-02-24T07:43:43.992Z,8.64
2023-02-24T07:45:47.428Z,8.54
2023-02-24T07:47:50.294Z,8.57
2023-02-24T07:49:52.865Z,8.82
2023-02-24T07:51:57.801Z,8.64
2023-02-24T07:54:02.679Z,8.81
2023-02-24T07:56:10.721Z,8.87
2023-02-24T07:58:13.689Z,8.78
2023-02-24T08:00:18.968Z,8.88
2023-02-24T08:02:23.774Z,8.83
2023-02-24T08:04:32.847Z,8.76
2023-02-24T08:06:38.693Z,8.72
2023-02-24T08:08:57.939Z,8.85
2023-02-24T08:11:04.079Z,8.89
2023-02-24T08:13:06.756Z,9.05
2023-02-24T08:15:17.274Z,8.89
2023-02-24T08:17:23.884Z,8.89
2023-02-24T08:19:32.805Z,8.92
2023-02-24T08:21:38.230Z,8.90
2023-02-24T08:23:44.578Z,8.87
2023-02-24T08:25:47.133Z,8.93
2023-02-24T08:28:12.249Z,8.96
2023-02-24T08:30:23.385Z,9.22
2023-02-24T08:32:33.815Z,9.11
2023-02-24T08:34:36.666Z,9.19
2023-02-24T08:36:39.244Z,9.04
2023-02-24T08:38:42.084Z,9.16
2023-02-24T08:40:54.509Z,9.08
2023-02-24T08:42:58.627Z,9.12
2023-02-24T08:45:01.844Z,9.27
2023-02-24T08:47:07.466Z,9.40
2023-02-24T08:49:12.247Z,9.52
2023-02-24T08:51:18.071Z,9.40
2023-02-24T08:53:20.809Z,9.30
2023-02-24T08:55:30.155Z,9.34
2023-02-24T08:57:35.946Z,9.48
2023-02-24T08:59:38.925Z,9.34
2023-02-24T09:02:04.153Z,9.31
2023-02-24T09:04:09.793Z,9.47
2023-02-24T09:06:16.823Z,9.49
2023-02-24T09:08:24.110Z,9.54
2023-02-24T09:10:28.569Z,9.57
2023-02-24T09:12:32.174Z,9.36
2023-02-24T09:14:37.561Z,9.30
2023-02-24T09:16:52.419Z,9.35
2023-02-24T09:19:08.894Z,9.21
2023-02-24T09:21:37.612Z,9.25
2023-02-24T09:23:46.020Z,9.34
2023-02-24T09:25:50.434Z,9.32
2023-02-24T09:27:55.864Z,9.21
2023-02-24T09:30:08.098Z,9.31
2023-02-24T09:32:14.745Z,9.25
2023-02-24T09:34:18.545Z,9.27
2023-02-24T09:36:27.966Z,9.35
2023-02-24T09:38:49.355Z,9.55
2023-02-24T09:40:52.177Z,9.40
2023-02-24T09:42:58.371Z,9.24
2023-02-24T09:45:11.386Z,9.21
2023-02-24T09:47:20.209Z,9.31
2023-02-24T09:49:28.364Z,9.25
2023-02-24T09:51:42.228Z,9.36
2023-02-24T09:53:52.538Z,9.55
2023-02-24T09:56:04.840Z,9.45
2023-02-24T09:58:31.903Z,9.31
2023-02-24T10:00:44.271Z,9.50
2023-02-24T10:03:00.185Z,9.58
2023-02-24T10:05:14.837Z,9.46
2023-02-24T10:07:28.441Z,9.27
2023-02-24T10:09:35.411Z,9.20
2023-02-24T10:11:40.738Z,9.30
2023-02-24T10:13:49.128Z,9.25
2023-02-24T10:15:59.865Z,9.24
2023-02-24T10:18:27.199Z,9.36
2023-02-24T10:20:40.392Z,9.43
2023-02-24T10:22:53.261Z,9.51
2023-02-24T10:25:10.912Z,9.47
2023-02-24T10:27:23.752Z,9.52
2023-02-24T10:29:39.057Z,9.51
2023-02-24T10:31:48.036Z,9.55
2023-02-24T10:33:53.768Z,9.44
2023-02-24T10:36:11.510Z,9.35
2023-02-24T10:38:15.902Z,9.57
2023-02-24T10:40:26.602Z,9.50
2023-02-24T10:42:32.527Z,9.65
2023-02-24T10:44:38.912Z,9.61
2023-02-24T10:46:43.089Z,9.46
2023-02-24T10:48:52.799Z,9.49
2023-02-24T10:51:08.385Z,9.59
2023-02-24T10:53:34.453Z,9.48
2023-02-24T10:56:02.066Z,9.45
2023-02-24T10:58:07.205Z,9.50
2023-02-24T11:00:32.538Z,9.63
2023-02-24T11:02:56.482Z,9.61
2023-02-24T11:05:27.288Z,9.52
2023-02-24T11:07:44.155Z,9.62
2023-02-24T11:09:52.475Z,9.56
2023-02-24T11:12:15.138Z,9.58
2023-02-24T11:14:35.879Z,9.52
2023-02-24T11:17:05.695Z,9.52
2023-02-24T11:19:08.888Z,9.66
2023-02-24T11:21:14.411Z,9.48
2023-02-24T11:23:20.006Z,9.48
2023-02-24T11:25:26.101Z,9.58
2023-02-24T11:27:30.116Z,9.70
2023-02-24T11:29:49.118Z,9.65
2023-02-24T11:32:09.056Z,9.69
2023-02-24T11:34:20.081Z,9.66
2023-02-24T11:36:30.642Z,9.70
2023-02-24T11:38:41.203Z,9.91
2023-02-24T11:40:48.274Z,9.80
2023-02-24T11:42:57.042Z,9.82
2023-02-24T11:45:06.350Z,9.99
2023-02-24T11:47:16.117Z,9.81
2023-02-24T11:49:27.883Z,9.82
2023-02-24T11:51:33.522Z,9.81
2023-02-24T11:53:37.947Z,9.85
2023-02-24T11:55:46.335Z,9.88
2023-02-24T11:57:55.370Z,10.01
2023-02-24T12:00:15.604Z,10.04
2023-02-24T12:02:28.428Z,10.06
2023-02-24T12:04:35.881Z,10.17
2023-02-24T12:06:45.302Z,10.22
2023-02-24T12:08:53.630Z,10.39
2023-02-24T12:11:02.927Z,10.46
2023-02-24T12:13:17.194Z,10.46
2023-02-24T12:15:25.593Z,10.55
2023-02-24T12:17:35.996Z,10.82
2023-02-24T12:19:51.657Z,10.70
2023-02-24T12:21:59.528Z,10.86
2023-02-24T12:24:08.485Z,10.94
2023-02-24T12:26:19.899Z,11.12
2023-02-24T12:28:39.221Z,11.17
2023-02-24T12:31:08.900Z,11.11
2023-02-24T12:33:27.916Z,11.13
2023-02-24T12:35:39.521Z,11.24
2023-02-24T12:37:59.691Z,11.12
2023-02-24T12:40:16.819Z,11.00
2023-02-24T12:42:27.296Z,11.16
2023-02-24T12:44:42.648Z,10.95
2023-02-24T12:46:48.956Z,10.81
2023-02-24T12:49:09.323Z,10.75
2023-02-24T12:51:22.902Z,10.69
2023-02-24T12:53:36.678Z,10.68
2023-02-24T12:55:50.095Z,10.79
2023-02-24T12:58:01.336Z,10.85
2023-02-24T13:00:12.558Z,11.02
2023-02-24T13:02:23.863Z,10.80
2023-02-24T13:04:35.048Z,10.78
2023-02-24T13:06:49.635Z,10.73
2023-02-24T13:08:59.467Z,10.99
2023-02-24T13:11:09.947Z,10.83
2023-02-24T13:13:20.704Z,10.75
2023-02-24T13:15:26.259Z,10.70
2023-02-24T13:17:29.624Z,10.70
2023-02-24T13:19:32.383Z,10.71
2023-02-24T13:21:35.369Z,10.96
2023-02-24T13:23:41.879Z,10.89
2023-02-24T13:25:52.110Z,10.93
2023-02-24T13:28:01.066Z,11.19
2023-02-24T13:30:08.531Z,11.11
2023-02-24T13:32:26.428Z,11.04
2023-02-24T13:34:33.132Z,11.15
2023-02-24T13:36:47.302Z,11.05
2023-02-24T13:38:52.262Z,11.26
2023-02-24T13:40:55.262Z,11.29
2023-02-24T13:43:00.583Z,11.18
2023-02-24T13:45:07.699Z,11.14
2023-02-24T13:47:45.811Z,11.04
2023-02-24T13:50:01.228Z,11.18
2023-02-24T13:52:12.749Z,11.11
2023-02-24T13:54:32.412Z,11.09
2023-02-24T13:56:42.915Z,10.98
2023-02-24T13:59:00.511Z,11.13
2023-02-24T14:01:11.771Z,11.27
2023-02-24T14:03:21.410Z,11.32
2023-02-24T14:05:28.937Z,11.17
2023-02-24T14:07:36.886Z,11.12
2023-02-24T14:09:44.280Z,11.04
2023-02-24T14:11:46.913Z,11.22
2023-02-24T14:13:53.316Z,11.01
2023-02-24T14:15:56.936Z,10.92
2023-02-24T14:18:01.237Z,10.99
2023-02-24T14:20:18.930Z,10.93
2023-02-24T14:22:23.352Z,11.02
2023-02-24T14:24:28.071Z,11.18
2023-02-24T14:26:47.022Z,11.46
2023-02-24T14:28:55.992Z,11.39
2023-02-24T14:31:01.196Z,11.16
2023-02-24T14:33:05.899Z,11.16
2023-02-24T14:35:20.393Z,11.13
2023-02-24T14:37:27.097Z,11.18
2023-02-24T14:39:32.090Z,11.17
2023-02-24T14:41:35.357Z,11.07
2023-02-24T14:43:42.821Z,11.27
2023-02-24T14:45:50.178Z,11.40
2023-02-24T14:47:53.671Z,11.30
2023-02-24T14:49:59.725Z,11.38
2023-02-24T14:52:10.485Z,11.20
2023-02-24T14:54:24.154Z,11.03
2023-02-24T14:56:31.528Z,11.01
2023-02-24T14:58:39.510Z,10.97
2023-02-24T15:00:48.092Z,11.18
2023-02-24T15:02:58.792Z,11.04
2023-02-24T15:05:01.683Z,11.13
2023-02-24T15:07:06.765Z,11.14
2023-02-24T15:09:17.011Z,11.14
2023-02-24T15:11:23.005Z,11.24
2023-02-24T15:13:35.122Z,11.12
2023-02-24T15:15:39.422Z,11.03
2023-02-24T15:17:42.400Z,10.95
2023-02-24T15:19:47.154Z,10.91
2023-02-24T15:21:49.773Z,11.06
2023-02-24T15:24:00.410Z,10.88
2023-02-24T15:26:09.515Z,10.92
2023-02-24T15:28:25.726Z,10.98
2023-02-24T15:30:32.484Z,11.11
2023-02-24T15:32:37.905Z,10.98
2023-02-24T15:34:41.330Z,11.05
2023-02-24T15:36:43.995Z,11.00
2023-02-24T15:38:47.548Z,11.03
2023-02-24T15:40:53.505Z,11.16
2023-02-24T15:42:59.778Z,10.99
2023-02-24T15:45:03.636Z,10.84
2023-02-24T15:47:22.732Z,10.89
2023-02-24T15:49:25.702Z,11.03
2023-02-24T15:51:35.078Z,11.09
2023-02-24T15:53:37.632Z,11.19
2023-02-24T15:55:42.481Z,11.05
2023-02-24T15:57:45.679Z,11.11
2023-02-24T15:59:49.565Z,10.99
2023-02-24T16:01:52.449Z,11.18
2023-02-24T16:03:55.113Z,11.08
2023-02-24T16:05:57.698Z,11.01
2023-02-24T16:08:00.348Z,10.99
2023-02-24T16:10:03.982Z,10.90
2023-02-24T16:12:11.336Z,10.92
2023-02-24T16:14:19.016Z,10.88
2023-02-24T16:16:23.978Z,10.74
2023-02-24T16:18:27.081Z,10.72
2023-02-24T16:20:32.449Z,10.71
2023-02-24T16:22:35.040Z,10.90
2023-02-24T16:24:38.136Z,11.01
2023-02-24T16:26:41.651Z,10.77
2023-02-24T16:28:45.142Z,11.00
2023-02-24T16:30:49.599Z,10.73
2023-02-24T16:32:53.740Z,10.83
2023-02-24T16:34:57.117Z,10.71
2023-02-24T16:36:59.706Z,10.78
2023-02-24T16:39:04.835Z,10.77
2023-02-24T16:41:07.652Z,10.64
2023-02-24T16:43:10.803Z,10.68
2023-02-24T16:45:13.398Z,10.55
2023-02-24T16:47:20.143Z,10.55
2023-02-24T16:49:24.278Z,10.61
2023-02-24T16:51:28.984Z,10.51
2023-02-24T16:53:32.025Z,10.49
2023-02-24T16:55:34.877Z,10.43
2023-02-24T16:57:37.551Z,10.42
2023-02-24T16:59:40.216Z,10.42
2023-02-24T17:01:43.467Z,10.66
2023-02-24T17:03:48.492Z,10.48
2023-02-24T17:05:52.806Z,10.48
2023-02-24T17:07:57.183Z,10.63
2023-02-24T17:09:59.830Z,10.51
2023-02-24T17:12:02.436Z,10.51
2023-02-24T17:14:05.044Z,10.43
2023-02-24T17:16:07.889Z,10.42
2023-02-24T17:18:10.656Z,10.43
2023-02-24T17:20:15.791Z,10.40
2023-02-24T17:22:20.318Z,10.35
2023-02-24T17:24:22.904Z,10.29
2023-02-24T17:26:25.643Z,10.26
2023-02-24T17:28:29.009Z,10.29
2023-02-24T17:30:33.989Z,10.25
2023-02-24T17:32:36.625Z,10.22
2023-02-24T17:34:39.250Z,10.19
2023-02-24T17:36:41.818Z,10.44
2023-02-24T17:38:45.852Z,10.38
2023-02-24T17:40:48.951Z,10.27
2023-02-24T17:42:51.720Z,10.22
2023-02-24T17:44:54.420Z,10.25
2023-02-24T17:46:56.991Z,10.12
2023-02-24T17:49:00.224Z,10.13
2023-02-24T17:51:02.875Z,10.25
2023-02-24T17:53:05.503Z,10.15
2023-02-24T17:55:12.625Z,10.08
2023-02-24T17:57:15.221Z,10.01
2023-02-24T17:59:17.890Z,9.99
2023-02-24T18:01:20.483Z,9.95
2023-02-24T18:03:23.206Z,9.98
2023-02-24T18:05:26.122Z,9.92
2023-02-24T18:07:29.058Z,9.91
2023-02-24T18:09:31.645Z,9.90
2023-02-24T18:11:35.953Z,9.89
2023-02-24T18:13:38.552Z,9.93
2023-02-24T18:15:41.159Z,9.99
2023-02-24T18:17:43.750Z,9.99
2023-02-24T18:19:46.408Z,10.09
2023-02-24T18:21:49.120Z,9.91
2023-02-24T18:23:51.684Z,9.86
2023-02-24T18:25:54.301Z,10.02
2023-02-24T18:27:58.187Z,9.91
2023-02-24T18:30:00.747Z,9.92
2023-02-24T18:32:04.250Z,9.84
2023-02-24T18:34:06.908Z,9.92
2023-02-24T18:36:11.331Z,9.91
2023-02-24T18:38:13.959Z,9.83
2023-02-24T18:40:16.684Z,9.88
2023-02-24T18:42:19.250Z,9.95
2023-02-24T18:44:26.170Z,9.88
2023-02-24T18:46:28.773Z,9.92
2023-02-24T18:48:32.593Z,9.94
2023-02-24T18:50:35.179Z,9.97
2023-02-24T18:52:37.733Z,9.76
2023-02-24T18:54:40.328Z,9.80
2023-02-24T18:56:42.967Z,9.74
2023-02-24T18:58:46.873Z,9.68
2023-02-24T19:00:51.562Z,9.53
2023-02-24T19:02:54.144Z,9.67
2023-02-24T19:04:57.083Z,9.65
2023-02-24T19:06:59.664Z,9.51
2023-02-24T19:09:06.055Z,9.43
2023-02-24T19:11:10.447Z,9.47
2023-02-24T19:13:13.562Z,9.41
2023-02-24T19:15:17.685Z,9.34
2023-02-24T19:17:21.674Z,9.41
2023-02-24T19:19:24.466Z,9.43
2023-02-24T19:21:29.419Z,9.26
2023-02-24T19:23:32.108Z,9.23
2023-02-24T19:25:35.039Z,9.15
2023-02-24T19:27:37.632Z,9.07
2023-02-24T19:29:40.443Z,9.07
2023-02-24T19:31:43.123Z,9.05
2023-02-24T19:33:47.380Z,9.07
2023-02-24T19:35:53.164Z,9.00
2023-02-24T19:37:55.809Z,8.99
2023-02-24T19:39:58.363Z,8.99
2023-02-24T19:42:00.926Z,8.93
2023-02-24T19:44:03.541Z,8.90
2023-02-24T19:46:07.204Z,8.85
2023-02-24T19:48:10.798Z,8.96
2023-02-24T19:50:16.574Z,9.08
2023-02-24T19:52:19.279Z,9.12
2023-02-24T19:54:22.443Z,9.10
2023-02-24T19:56:25.877Z,8.89
2023-02-24T19:58:28.435Z,9.13
2023-02-24T20:00:31.073Z,9.01
2023-02-24T20:02:33.723Z,9.03
2023-02-24T20:04:36.300Z,9.10
2023-02-24T20:06:42.995Z,8.95
2023-02-24T20:08:45.637Z,9.14
2023-02-24T20:10:48.205Z,8.83
2023-02-24T20:12:50.801Z,8.81
2023-02-24T20:14:53.555Z,8.74
2023-02-24T20:16:56.505Z,8.72
2023-02-24T20:19:00.006Z,8.54
2023-02-24T20:21:02.854Z,8.70
2023-02-24T20:23:06.821Z,8.64
2023-02-24T20:25:10.307Z,8.70
2023-02-24T20:27:12.893Z,8.70
2023-02-24T20:29:16.508Z,8.88
2023-02-24T20:31:20.243Z,8.98
2023-02-24T20:33:23.402Z,8.86
2023-02-24T20:35:26.430Z,8.73
2023-02-24T20:37:29.015Z,8.86
2023-02-24T20:39:33.517Z,8.90
2023-02-24T20:41:36.220Z,8.78
2023-02-24T20:43:39.030Z,8.89
2023-02-24T20:45:41.683Z,8.77
2023-02-24T20:47:44.315Z,8.77
2023-02-24T20:49:46.909Z,8.66
2023-02-24T20:51:49.532Z,8.64
2023-02-24T20:53:57.762Z,8.59
2023-02-24T20:56:03.590Z,8.58
2023-02-24T20:58:06.501Z,8.60
2023-02-24T21:00:10.518Z,8.39
2023-02-24T21:02:13.285Z,8.50
2023-02-24T21:04:18.149Z,8.39
2023-02-24T21:06:20.760Z,8.39
2023-02-24T21:08:23.371Z,8.40
2023-02-24T21:10:26.111Z,8.23
2023-02-24T21:12:30.202Z,8.17
2023-02-24T21:14:32.783Z,8.30
2023-02-24T21:16:36.244Z,8.40
2023-02-24T21:18:39.902Z,8.48
2023-02-24T21:20:42.451Z,8.42
2023-02-24T21:22:45.086Z,8.28
2023-02-24T21:24:47.833Z,8.34
2023-02-24T21:26:50.474Z,8.34
2023-02-24T21:28:57.882Z,8.42
2023-02-24T21:31:00.956Z,8.50
2023-02-24T21:33:04.232Z,8.48
2023-02-24T21:35:07.030Z,8.52
2023-02-24T21:37:09.648Z,8.41
2023-02-24T21:39:14.431Z,8.37
2023-02-24T21:41:19.265Z,8.52
2023-02-24T21:43:22.656Z,8.45
2023-02-24T21:45:27.599Z,8.26
2023-02-24T21:47:31.683Z,8.28
2023-02-24T21:49:34.401Z,8.18
2023-02-24T21:51:36.992Z,8.06
2023-02-24T21:53:41.825Z,8.14
2023-02-24T21:55:44.566Z,8.06
2023-02-24T21:57:47.942Z,8.07
2023-02-24T21:59:50.727Z,8.02
2023-02-24T22:01:55.164Z,7.96
2023-02-24T22:03:59.007Z,7.89
2023-02-24T22:06:01.566Z,7.88
2023-02-24T22:08:04.212Z,7.87
2023-02-24T22:10:07.672Z,7.89
2023-02-24T22:12:10.264Z,7.90
2023-02-24T22:14:15.048Z,7.96
2023-02-24T22:16:19.910Z,7.96
2023-02-24T22:18:23.925Z,7.90
2023-02-24T22:20:26.531Z,8.23
2023-02-24T22:22:29.096Z,8.28
2023-02-24T22:24:31.762Z,8.09
2023-02-24T22:26:34.750Z,8.04
2023-02-24T22:28:39.769Z,8.02
2023-02-24T22:30:42.438Z,8.15
2023-02-24T22:32:45.060Z,8.07
2023-02-24T22:34:49.245Z,7.94
2023-02-24T22:36:51.855Z,8.00
2023-02-24T22:38:56.156Z,7.85
2023-02-24T22:40:59.851Z,7.75
2023-02-24T22:43:02.583Z,7.59
2023-02-24T22:45:06.325Z,7.55
2023-02-24T22:47:09.009Z,7.53
2023-02-24T22:49:12.224Z,7.45
2023-02-24T22:51:16.333Z,7.31
2023-02-24T22:53:18.909Z,7.32
2023-02-24T22:55:21.498Z,7.28
2023-02-24T22:57:24.105Z,7.29
2023-02-24T22:59:26.650Z,7.22
2023-02-24T23:01:31.996Z,7.25
2023-02-24T23:03:34.649Z,7.26
2023-02-24T23:05:37.211Z,7.27
2023-02-24T23:07:41.139Z,7.27
2023-02-24T23:09:52.714Z,7.28
2023-02-24T23:11:55.302Z,7.29
2023-02-24T23:13:59.516Z,7.24
2023-02-24T23:16:03.499Z,7.25
2023-02-24T23:18:06.529Z,7.26
2023-02-24T23:20:12.786Z,7.29
2023-02-24T23:22:15.417Z,7.28
2023-02-24T23:24:20.745Z,7.25
2023-02-24T23:26:23.969Z,7.25
2023-02-24T23:28:27.721Z,7.24
2023-02-24T23:30:33.135Z,7.17
2023-02-24T23:32:36.256Z,7.17
2023-02-24T23:34:41.941Z,7.17
2023-02-24T23:36:47.398Z,7.15
2023-02-24T23:38:50.460Z,7.12
2023-02-24T23:40:54.339Z,7.15
2023-02-24T23:42:56.881Z,7.12
2023-02-24T23:44:59.448Z,7.13
2023-02-24T23:47:02.032Z,7.14
2023-02-24T23:49:05.717Z,7.13
2023-02-24T23:51:13.339Z,7.13
2023-02-24T23:53:15.919Z,7.11
2023-02-24T23:55:18.654Z,7.12
2023-02-24T23:57:23.141Z,7.13
2023-02-24T23:59:25.793Z,7.10
